Time;durP1;ratioP1;P1;durP2;ratioP2;P2;SDS_P1;SDS_P2;PMS_P1;PMS_P2;Temp;Humidity;BMP_temperature;BMP_pressure;BME280_temperature;BME280_humidity;BME280_pressure;Samples;Min_cycle;Max_cycle;Signal;HPM_P1;HPM_P2
2024/01/28 00:01:18;;;;;;;33.72;6.70;;;;;;;1.31;89.74;103112.34;4993050;28;20070;-73
2024/01/28 00:03:45;;;;;;;38.28;5.80;;;;;;;1.30;89.39;103108.78;4993691;28;20057;-71
2024/01/28 00:06:12;;;;;;;29.27;6.07;;;;;;;1.26;90.18;103107.97;4994085;28;20501;-72
2024/01/28 00:08:39;;;;;;;34.53;6.38;;;;;;;1.25;89.79;103106.19;4992862;28;20070;-74
2024/01/28 00:11:05;;;;;;;32.50;6.40;;;;;;;1.26;89.23;103097.25;4993145;28;20058;-74
2024/01/28 00:13:34;;;;;;;40.55;6.05;;;;;;;1.27;89.54;103101.69;4993434;28;20503;-72
2024/01/28 00:16:01;;;;;;;34.22;6.13;;;;;;;1.23;89.05;103101.75;4993954;28;20038;-72
2024/01/28 00:18:28;;;;;;;42.20;6.95;;;;;;;1.18;89.78;103104.47;4993403;28;20074;-73
2024/01/28 00:20:54;;;;;;;26.90;5.10;;;;;;;1.18;89.53;103101.81;4993179;28;20075;-72
2024/01/28 00:23:21;;;;;;;39.92;7.40;;;;;;;1.18;90.00;103104.47;4993343;28;20054;-73
2024/01/28 00:25:47;;;;;;;44.38;7.38;;;;;;;1.12;90.27;103104.53;4994571;28;20043;-73
2024/01/28 00:28:14;;;;;;;34.47;6.32;;;;;;;1.21;90.00;103093.75;4992705;28;20058;-72
2024/01/28 00:30:41;;;;;;;36.42;6.05;;;;;;;1.35;88.82;103088.25;4973824;28;20046;-72
2024/01/28 00:33:08;;;;;;;33.25;5.97;;;;;;;1.21;89.37;103095.53;4974092;28;20051;-72
2024/01/28 00:35:34;;;;;;;35.00;5.95;;;;;;;1.15;89.62;103103.63;4973000;28;20046;-72
2024/01/28 00:38:02;;;;;;;33.75;6.13;;;;;;;1.10;89.71;103106.34;4974417;28;20180;-73
2024/01/28 00:40:29;;;;;;;33.00;6.53;;;;;;;1.09;90.36;103103.69;4974027;28;20069;-71
2024/01/28 00:42:56;;;;;;;34.40;5.82;;;;;;;1.13;90.01;103098.28;4973860;28;20057;-72
2024/01/28 00:45:22;;;;;;;30.58;6.15;;;;;;;1.16;89.41;103100.94;4973120;28;20051;-73
2024/01/28 00:47:50;;;;;;;31.25;5.65;;;;;;;1.23;89.49;103107.09;4974065;28;20530;-71
2024/01/28 00:50:16;;;;;;;27.80;5.82;;;;;;;1.14;89.16;103105.44;4973804;28;20047;-74
2024/01/28 00:52:44;;;;;;;19.33;5.75;;;;;;;1.10;89.23;103106.34;4972996;28;20070;-72
2024/01/28 00:55:10;;;;;;;37.63;6.40;;;;;;;0.98;89.03;103117.16;4972069;28;20125;-73
2024/01/28 00:57:37;;;;;;;26.00;5.35;;;;;;;0.99;89.51;103110.91;4973582;28;20047;-74
2024/01/28 01:00:05;;;;;;;31.10;5.35;;;;;;;0.97;89.46;103115.41;4974424;28;20053;-73
2024/01/28 01:02:31;;;;;;;32.55;5.63;;;;;;;0.95;90.71;103112.75;4973089;28;20081;-73
2024/01/28 01:04:58;;;;;;;39.92;6.13;;;;;;;0.92;89.81;103109.19;4971717;28;20039;-73
2024/01/28 01:07:26;;;;;;;30.58;5.88;;;;;;;0.90;90.04;103109.22;4972976;28;20047;-73
2024/01/28 01:09:52;;;;;;;27.35;6.30;;;;;;;0.97;90.17;103110.94;4973522;28;20506;-73
2024/01/28 01:12:20;;;;;;;29.80;5.65;;;;;;;0.92;90.11;103107.41;4973508;28;20077;-72
2024/01/28 01:14:47;;;;;;;39.55;6.80;;;;;;;0.90;90.26;103108.34;4974147;28;20046;-73
2024/01/28 01:17:14;;;;;;;46.13;6.28;;;;;;;0.86;90.10;103101.22;4973646;28;20043;-71
2024/01/28 01:19:40;;;;;;;32.67;6.13;;;;;;;0.82;91.06;103102.19;4973868;28;20074;-74
2024/01/28 01:22:08;;;;;;;33.53;6.70;;;;;;;0.83;90.98;103101.28;4973908;28;20129;-73
2024/01/28 01:24:35;;;;;;;29.13;6.28;;;;;;;0.80;90.78;103096.84;4972713;28;20050;-72
2024/01/28 01:27:02;;;;;;;41.70;6.07;;;;;;;0.80;90.78;103095.97;4973739;28;20423;-73
2024/01/28 01:29:29;;;;;;;37.75;7.57;;;;;;;0.78;90.32;103097.78;4984188;28;20146;-73
2024/01/28 01:31:56;;;;;;;26.15;5.82;;;;;;;0.79;90.84;103100.44;4992990;28;20046;-73
2024/01/28 01:34:22;;;;;;;43.00;6.53;;;;;;;0.80;90.73;103106.66;4992839;28;20475;-73
2024/01/28 01:36:49;;;;;;;32.45;6.75;;;;;;;0.71;90.35;103103.16;4993145;28;20475;-72
2024/01/28 01:39:18;;;;;;;37.72;7.35;;;;;;;0.79;90.08;103111.13;4993379;28;20050;-72
2024/01/28 01:41:45;;;;;;;36.28;7.38;;;;;;;0.74;90.75;103109.38;4992537;28;20046;-72
2024/01/28 01:44:13;;;;;;;20.95;5.30;;;;;;;0.71;90.28;103104.94;4992600;28;20068;-72
2024/01/28 01:46:44;;;;;;;27.30;5.95;;;;;;;0.70;90.32;103111.19;4992614;28;20065;-72
2024/01/28 01:49:11;;;;;;;32.85;6.30;;;;;;;0.60;90.18;103110.38;4991907;28;20459;-72
2024/01/28 01:51:39;;;;;;;28.15;5.18;;;;;;;0.59;90.91;103115.75;4991625;28;20066;-72
2024/01/28 01:54:06;;;;;;;34.58;7.40;;;;;;;0.55;90.02;103111.31;4991959;28;20054;-72
2024/01/28 01:56:34;;;;;;;32.30;5.97;;;;;;;0.49;90.27;103111.34;4992387;28;20514;-75
2024/01/28 01:59:03;;;;;;;28.77;6.20;;;;;;;0.47;90.30;103113.16;4991704;28;20105;-72
2024/01/28 02:01:30;;;;;;;41.22;6.82;;;;;;;0.43;90.67;103113.19;4991959;28;20050;-72
2024/01/28 02:03:58;;;;;;;33.67;5.47;;;;;;;0.39;90.63;103110.53;4992008;28;20498;-72
2024/01/28 02:09:48;;;;;;;33.42;6.28;;;;;;;0.33;90.43;103099.94;4991916;28;20096;-73
2024/01/28 02:12:15;;;;;;;33.03;7.05;;;;;;;0.34;90.38;103112.38;4992135;28;20081;-73
2024/01/28 02:14:41;;;;;;;32.22;6.20;;;;;;;0.36;91.72;103110.56;4991581;28;20049;-73
2024/01/28 02:17:08;;;;;;;30.38;6.78;;;;;;;0.36;91.54;103105.22;4991839;28;20411;-73
2024/01/28 02:19:35;;;;;;;28.60;6.15;;;;;;;0.32;91.43;103100.81;4991792;28;20491;-72
2024/01/28 02:22:02;;;;;;;39.72;6.97;;;;;;;0.29;91.15;103100.81;4989462;28;20137;-72
2024/01/28 02:24:28;;;;;;;38.53;5.97;;;;;;;0.28;91.97;103099.06;4991080;28;20046;-72
2024/01/28 02:26:56;;;;;;;38.85;6.25;;;;;;;0.26;91.37;103098.19;4990806;28;20571;-72
2024/01/28 02:29:22;;;;;;;32.50;6.13;;;;;;;0.26;92.12;103098.19;4980577;28;20097;-72
2024/01/28 02:31:49;;;;;;;34.15;5.75;;;;;;;0.28;91.92;103099.94;4986549;28;20053;-72
2024/01/28 02:34:15;;;;;;;32.75;6.35;;;;;;;0.33;91.83;103105.25;4991964;28;20562;-72
2024/01/28 02:36:42;;;;;;;39.60;7.10;;;;;;;0.35;91.82;103100.78;4991428;28;20046;-72
2024/01/28 02:39:09;;;;;;;32.42;6.57;;;;;;;0.35;91.93;103098.13;4991390;28;20123;-72
2024/01/28 02:41:35;;;;;;;37.72;7.05;;;;;;;0.32;91.59;103088.38;4991674;28;20503;-68
2024/01/28 02:44:02;;;;;;;35.78;6.40;;;;;;;0.31;92.12;103089.28;4992268;28;20474;-68
2024/01/28 02:46:29;;;;;;;25.25;5.35;;;;;;;0.29;92.11;103088.38;4992340;28;20046;-68
2024/01/28 02:48:55;;;;;;;35.65;6.45;;;;;;;0.21;91.79;103090.22;4992716;28;20042;-68
2024/01/28 02:51:22;;;;;;;26.08;5.72;;;;;;;0.17;91.38;103083.13;4992435;28;20050;-69
2024/01/28 02:53:51;;;;;;;32.42;5.35;;;;;;;0.17;92.24;103090.25;4991587;28;20046;-69
2024/01/28 02:56:18;;;;;;;32.85;7.68;;;;;;;0.16;91.13;103096.50;4991729;28;20082;-68
2024/01/28 02:58:44;;;;;;;27.30;6.20;;;;;;;0.15;90.80;103095.59;4992454;28;20121;-68
2024/01/28 03:01:11;;;;;;;39.65;6.80;;;;;;;0.16;91.61;103091.16;4990464;28;20458;-68
2024/01/28 03:03:37;;;;;;;32.33;6.22;;;;;;;0.17;91.14;103087.56;4992441;28;20483;-68
2024/01/28 03:06:04;;;;;;;35.67;7.03;;;;;;;0.13;91.54;103082.28;4992080;28;20042;-68
2024/01/28 03:08:32;;;;;;;40.70;6.75;;;;;;;0.10;91.41;103082.28;4991245;28;20495;-68
2024/01/28 03:10:58;;;;;;;38.30;7.25;;;;;;;0.10;91.23;103084.94;4991861;28;20050;-68
2024/01/28 03:13:25;;;;;;;28.77;6.00;;;;;;;0.05;91.27;103088.56;4974767;28;20482;-68
2024/01/28 03:15:54;;;;;;;31.55;6.90;;;;;;;0.02;91.32;103091.22;4991650;28;20054;-68
2024/01/28 03:18:22;;;;;;;29.77;6.07;;;;;;;-0.03;91.25;103088.59;4991236;28;20054;-68
2024/01/28 03:20:48;;;;;;;33.03;7.28;;;;;;;-0.07;91.24;103084.19;4991637;28;20129;-70
2024/01/28 03:23:15;;;;;;;35.78;6.68;;;;;;;-0.08;91.17;103093.06;4992229;28;20049;-69
2024/01/28 03:25:42;;;;;;;47.60;7.25;;;;;;;-0.11;91.60;103093.09;4973759;28;20046;-68
2024/01/28 03:28:10;;;;;;;33.95;7.50;;;;;;;-0.11;91.44;103093.09;4973432;28;20038;-68
2024/01/28 03:30:36;;;;;;;32.78;6.82;;;;;;;-0.11;91.69;103085.09;4972286;28;20043;-68
2024/01/28 03:33:03;;;;;;;34.30;6.43;;;;;;;-0.07;92.10;103084.19;4972193;28;20129;-68
2024/01/28 03:35:30;;;;;;;26.10;6.28;;;;;;;-0.05;91.98;103087.72;4971897;28;20070;-68
2024/01/28 03:37:57;;;;;;;44.42;7.50;;;;;;;-0.12;91.72;103083.31;4972427;28;20045;-68
2024/01/28 03:40:23;;;;;;;43.75;7.47;;;;;;;-0.10;91.98;103077.97;4954742;28;20065;-68
2024/01/28 03:42:50;;;;;;;27.55;6.30;;;;;;;-0.17;91.66;103085.13;4971437;28;20047;-68
2024/01/28 03:45:16;;;;;;;41.72;6.55;;;;;;;-0.18;91.59;103091.34;4970731;28;20074;-69
2024/01/28 03:47:43;;;;;;;38.55;7.30;;;;;;;-0.21;91.56;103086.91;4971894;28;20042;-68
2024/01/28 03:50:11;;;;;;;27.77;6.72;;;;;;;-0.15;91.92;103086.00;4971837;28;20077;-68
2024/01/28 03:52:38;;;;;;;34.10;6.68;;;;;;;-0.13;91.86;103083.34;4971057;28;20114;-68
2024/01/28 03:55:06;;;;;;;33.35;7.18;;;;;;;-0.22;91.37;103084.28;4971826;28;20098;-68
2024/01/28 03:57:32;;;;;;;35.15;7.43;;;;;;;-0.22;91.85;103084.28;4971002;28;20137;-68
2024/01/28 03:59:59;;;;;;;35.17;7.10;;;;;;;-0.25;92.30;103087.84;4970866;28;20050;-68
2024/01/28 04:02:25;;;;;;;32.78;7.75;;;;;;;-0.32;91.33;103094.09;4971789;28;20129;-68
2024/01/28 04:04:52;;;;;;;37.05;8.57;;;;;;;-0.35;91.73;103082.53;4970923;28;20053;-68
2024/01/28 04:07:19;;;;;;;38.45;8.35;;;;;;;-0.39;92.21;103081.69;4971319;28;20047;-68
2024/01/28 04:09:46;;;;;;;38.50;8.40;;;;;;;-0.38;92.05;103082.56;4972372;28;20042;-67
2024/01/28 04:12:13;;;;;;;25.58;7.13;;;;;;;-0.40;92.37;103079.91;4971603;28;20047;-71
2024/01/28 04:14:39;;;;;;;43.17;8.40;;;;;;;-0.41;92.20;103079.94;4972222;28;20050;-68
2024/01/28 04:17:06;;;;;;;38.90;8.00;;;;;;;-0.43;91.75;103075.50;4971465;28;20059;-68
2024/01/28 04:19:33;;;;;;;27.67;7.35;;;;;;;-0.52;91.83;103079.97;4970460;28;20043;-68
2024/01/28 04:22:00;;;;;;;27.27;6.97;;;;;;;-0.52;91.62;103080.88;4971004;28;20054;-68
2024/01/28 04:24:26;;;;;;;33.90;7.25;;;;;;;-0.59;91.74;103086.22;4971643;28;20050;-69
2024/01/28 04:26:55;;;;;;;33.05;6.35;;;;;;;-0.65;91.81;103087.13;4970619;28;20050;-68
2024/01/28 04:29:22;;;;;;;33.17;6.05;;;;;;;-0.73;92.13;103079.13;4975360;28;20395;-69
2024/01/28 04:31:49;;;;;;;34.88;6.55;;;;;;;-0.79;91.66;103084.50;4976624;28;20492;-70
2024/01/28 04:34:15;;;;;;;34.30;7.53;;;;;;;-0.89;92.12;103081.88;4995180;28;20454;-68
2024/01/28 04:36:42;;;;;;;31.00;7.10;;;;;;;-0.84;92.82;103082.75;4995156;28;20101;-69
2024/01/28 04:39:09;;;;;;;24.08;5.47;;;;;;;-0.87;92.36;103090.75;4994482;28;20050;-68
2024/01/28 04:41:35;;;;;;;29.35;6.22;;;;;;;-0.98;92.30;103088.13;4994116;28;20050;-68
2024/01/28 04:44:02;;;;;;;28.42;6.50;;;;;;;-0.98;92.67;103092.56;4993877;28;20078;-68
2024/01/28 04:46:30;;;;;;;21.42;6.75;;;;;;;-1.05;92.54;103089.91;4994473;28;20045;-68
2024/01/28 04:48:57;;;;;;;31.70;6.57;;;;;;;-1.08;92.76;103087.25;4994246;28;20050;-68
2024/01/28 04:51:24;;;;;;;33.28;6.43;;;;;;;-1.13;93.07;103086.34;4994036;28;20054;-69
2024/01/28 04:53:51;;;;;;;22.70;7.10;;;;;;;-1.14;92.69;103086.38;4993151;28;20053;-68
2024/01/28 04:56:18;;;;;;;38.38;7.97;;;;;;;-1.15;93.00;103089.94;4994250;28;20125;-68
2024/01/28 04:58:45;;;;;;;32.20;6.93;;;;;;;-1.11;93.20;103095.22;4993912;28;20112;-68
2024/01/28 05:01:11;;;;;;;30.65;7.00;;;;;;;-1.07;93.62;103091.69;4993841;28;20046;-69
2024/01/28 05:03:38;;;;;;;31.35;6.78;;;;;;;-1.07;93.11;103098.78;4994086;28;20049;-68
2024/01/28 05:06:05;;;;;;;28.10;6.05;;;;;;;-1.03;93.41;103098.75;4994130;28;20567;-68
2024/01/28 05:08:32;;;;;;;28.65;6.85;;;;;;;-1.03;92.87;103104.09;4994074;28;20149;-67
2024/01/28 05:10:58;;;;;;;24.45;6.57;;;;;;;-1.04;92.65;103107.66;4993915;28;20133;-68
2024/01/28 05:13:25;;;;;;;31.08;6.30;;;;;;;-0.86;93.02;103104.06;4993953;28;20046;-68
2024/01/28 05:15:52;;;;;;;25.50;5.88;;;;;;;-0.88;91.89;103107.63;4994134;28;20416;-68
2024/01/28 05:18:20;;;;;;;33.22;6.18;;;;;;;-0.99;91.82;103112.09;4993473;28;20038;-68
2024/01/28 05:20:47;;;;;;;34.08;6.25;;;;;;;-1.14;92.04;103111.22;4994735;28;20133;-68
2024/01/28 05:23:14;;;;;;;30.40;5.65;;;;;;;-1.10;92.09;103112.97;4994787;28;20042;-68
2024/01/28 05:25:41;;;;;;;24.70;5.90;;;;;;;-1.22;92.06;103106.78;4993931;28;20121;-68
2024/01/28 05:28:08;;;;;;;23.67;5.97;;;;;;;-1.24;92.23;103117.44;4993611;28;20081;-69
2024/01/28 05:30:35;;;;;;;46.53;6.63;;;;;;;-1.32;92.36;103121.88;4956684;28;20102;-68
2024/01/28 05:33:02;;;;;;;28.50;5.93;;;;;;;-1.28;92.45;103123.63;4973645;28;20047;-68
2024/01/28 05:35:30;;;;;;;30.70;5.78;;;;;;;-1.29;92.90;103121.88;4973813;28;20134;-67
2024/01/28 05:37:57;;;;;;;35.75;6.95;;;;;;;-1.22;92.93;103118.31;4955871;28;20046;-67
2024/01/28 05:40:24;;;;;;;36.92;6.70;;;;;;;-1.33;92.24;103122.78;4974254;28;20046;-67
2024/01/28 05:42:50;;;;;;;23.95;6.07;;;;;;;-1.39;92.55;103125.44;4974380;28;20083;-68
2024/01/28 05:45:17;;;;;;;28.10;6.10;;;;;;;-1.41;92.69;103128.09;4974261;28;20046;-69
2024/01/28 05:47:44;;;;;;;25.75;6.35;;;;;;;-1.41;92.88;103127.22;4973866;28;20098;-69
2024/01/28 05:50:11;;;;;;;31.17;6.90;;;;;;;-1.41;93.08;103132.53;4973150;28;20050;-69
2024/01/28 05:52:38;;;;;;;20.95;5.97;;;;;;;-1.42;93.05;103128.97;4972995;28;20055;-68
2024/01/28 05:55:04;;;;;;;34.20;6.40;;;;;;;-1.42;92.55;103128.09;4973745;28;20507;-69
2024/01/28 05:57:31;;;;;;;32.58;6.32;;;;;;;-1.47;92.54;103124.53;4973460;28;20051;-68
2024/01/28 05:59:58;;;;;;;32.08;6.97;;;;;;;-1.48;93.02;103136.06;4973609;28;20410;-67
2024/01/28 06:02:24;;;;;;;28.67;6.50;;;;;;;-1.58;93.05;103125.41;4972798;28;20106;-67
2024/01/28 06:04:52;;;;;;;25.33;6.13;;;;;;;-1.63;93.02;103134.31;4974139;28;20416;-68
2024/01/28 06:07:18;;;;;;;28.92;6.45;;;;;;;-1.62;93.14;103128.09;4973954;28;20042;-70
2024/01/28 06:09:45;;;;;;;36.67;6.80;;;;;;;-1.58;93.53;103130.75;4973982;28;20472;-67
2024/01/28 06:12:11;;;;;;;32.20;7.03;;;;;;;-1.55;93.55;103131.66;4956373;28;20484;-68
2024/01/28 06:14:38;;;;;;;32.17;6.47;;;;;;;-1.54;93.09;103125.44;4973414;28;20094;-68
2024/01/28 06:17:05;;;;;;;33.70;6.63;;;;;;;-1.45;93.58;103122.78;4972849;28;20058;-68
2024/01/28 06:19:32;;;;;;;32.55;7.45;;;;;;;-1.40;93.36;103126.31;4972982;28;20051;-67
2024/01/28 06:22:02;;;;;;;37.95;7.03;;;;;;;-1.47;93.00;103122.75;4973254;28;20403;-68
2024/01/28 06:24:30;;;;;;;28.98;6.90;;;;;;;-1.53;93.05;103128.09;4972652;28;20057;-68
2024/01/28 06:26:56;;;;;;;22.67;6.40;;;;;;;-1.50;93.23;103129.88;4972663;28;20050;-68
2024/01/28 06:29:23;;;;;;;31.98;7.50;;;;;;;-1.62;93.02;103128.97;4983554;28;20050;-68
2024/01/28 06:31:50;;;;;;;36.28;7.78;;;;;;;-1.71;92.94;103139.59;4992209;28;20470;-68
2024/01/28 06:34:17;;;;;;;25.85;8.18;;;;;;;-1.75;93.21;103134.25;4993413;28;20046;-68
2024/01/28 06:36:44;;;;;;;34.58;8.48;;;;;;;-1.74;93.38;103126.31;4992892;28;20073;-67
2024/01/28 06:39:11;;;;;;;26.63;7.63;;;;;;;-1.75;93.25;103121.84;4992127;28;20069;-67
2024/01/28 06:41:38;;;;;;;40.45;9.00;;;;;;;-1.81;93.62;103121.84;4992336;28;20046;-67
2024/01/28 06:44:05;;;;;;;42.05;9.48;;;;;;;-1.84;93.43;103127.16;4991834;28;20046;-68
2024/01/28 06:46:31;;;;;;;33.28;7.80;;;;;;;-1.82;93.60;103129.84;4991156;28;20053;-68
2024/01/28 06:48:58;;;;;;;26.27;8.70;;;;;;;-1.82;94.08;103124.53;4991822;28;20049;-68
2024/01/28 06:51:25;;;;;;;38.08;8.88;;;;;;;-1.82;94.25;103124.53;4992114;28;20053;-68
2024/01/28 06:53:52;;;;;;;33.03;9.00;;;;;;;-1.86;94.10;103124.50;4991610;28;20053;-68
2024/01/28 06:56:19;;;;;;;43.20;9.00;;;;;;;-1.84;93.64;103126.25;4990718;28;20498;-70
2024/01/28 06:58:47;;;;;;;31.48;9.30;;;;;;;-1.81;94.22;103132.50;4992786;28;20043;-69
2024/01/28 07:01:14;;;;;;;29.85;9.23;;;;;;;-1.82;93.97;103122.75;4992097;28;20101;-69
2024/01/28 07:03:42;;;;;;;41.65;10.10;;;;;;;-1.81;93.54;103126.28;4974766;28;20042;-66
2024/01/28 07:06:14;;;;;;;36.75;9.93;;;;;;;-1.83;93.55;103122.75;4991682;28;20075;-67
2024/01/28 07:08:41;;;;;;;41.28;9.40;;;;;;;-1.84;94.11;103121.84;4990831;28;20049;-67
2024/01/28 07:11:07;;;;;;;27.95;9.82;;;;;;;-1.85;93.94;103122.72;4990622;28;20097;-67
2024/01/28 07:13:34;;;;;;;43.78;10.63;;;;;;;-1.84;93.53;103127.16;4974675;28;20054;-66
2024/01/28 07:16:01;;;;;;;35.72;11.15;;;;;;;-1.79;94.26;103136.03;4991605;28;20050;-67
2024/01/28 07:18:29;;;;;;;35.63;10.02;;;;;;;-1.75;94.14;103132.47;4991989;28;20384;-67
2024/01/28 07:20:56;;;;;;;38.95;8.60;;;;;;;-1.72;93.71;103127.19;4991450;28;20046;-68
2024/01/28 07:23:23;;;;;;;34.67;9.90;;;;;;;-1.69;93.10;103120.97;4991040;28;20058;-68
2024/01/28 07:25:49;;;;;;;29.10;9.95;;;;;;;-1.70;93.15;103122.75;4992067;28;20046;-69
2024/01/28 07:28:16;;;;;;;28.42;9.30;;;;;;;-1.64;93.19;103121.88;4990404;28;20050;-69
2024/01/28 07:30:43;;;;;;;37.47;10.50;;;;;;;-1.63;93.13;103116.56;4971353;28;20105;-69
2024/01/28 07:33:10;;;;;;;40.28;10.20;;;;;;;-1.64;93.06;103125.44;4971975;28;20063;-68
2024/01/28 07:35:37;;;;;;;37.10;10.90;;;;;;;-1.66;92.99;103116.53;4972405;28;20075;-68
2024/01/28 07:38:04;;;;;;;34.17;10.95;;;;;;;-1.65;93.42;103113.03;4971668;28;20043;-68
2024/01/28 07:40:30;;;;;;;29.02;9.98;;;;;;;-1.56;93.00;103117.44;4971929;28;20047;-68
2024/01/28 07:42:57;;;;;;;41.88;12.07;;;;;;;-1.54;93.19;103117.47;4972030;28;20039;-69
2024/01/28 07:45:24;;;;;;;35.65;12.40;;;;;;;-1.47;92.57;103124.53;4972029;28;20046;-68
2024/01/28 07:47:51;;;;;;;32.05;10.63;;;;;;;-1.47;92.69;103119.22;4971597;28;20042;-68
2024/01/28 07:50:18;;;;;;;38.28;10.80;;;;;;;-1.42;92.52;103118.34;4972165;28;20054;-70
2024/01/28 07:52:45;;;;;;;35.90;11.27;;;;;;;-1.39;92.84;103121.00;4971560;28;20047;-67
2024/01/28 07:55:12;;;;;;;34.95;10.68;;;;;;;-1.35;92.29;103121.91;4972272;28;20050;-69
2024/01/28 07:57:38;;;;;;;35.13;10.65;;;;;;;-1.36;92.22;103126.34;4972355;28;20045;-68
2024/01/28 08:00:06;;;;;;;33.83;10.45;;;;;;;-1.38;92.32;103133.41;4971858;28;20130;-68
2024/01/28 08:02:33;;;;;;;38.10;11.43;;;;;;;-1.39;92.29;103125.44;4971535;28;20528;-67
2024/01/28 08:04:59;;;;;;;41.15;10.43;;;;;;;-1.34;91.95;103118.34;4972931;28;20555;-67
2024/01/28 08:07:26;;;;;;;35.17;10.93;;;;;;;-1.25;91.66;103121.00;4975883;28;20471;-68
2024/01/28 08:09:53;;;;;;;41.33;12.05;;;;;;;-1.21;91.64;103122.75;4976007;28;20510;-68
2024/01/28 08:12:20;;;;;;;42.83;10.65;;;;;;;-1.15;91.50;103122.75;4975595;28;20043;-68
2024/01/28 08:14:47;;;;;;;36.38;10.43;;;;;;;-1.09;90.96;103138.75;4975979;28;20062;-69
2024/01/28 08:17:17;;;;;;;42.43;11.57;;;;;;;-1.04;90.94;103133.41;4975761;28;20447;-69
2024/01/28 08:19:44;;;;;;;45.80;11.63;;;;;;;-1.16;90.68;103128.97;4975596;28;20075;-68
2024/01/28 08:22:11;;;;;;;32.80;11.30;;;;;;;-1.12;90.93;103125.41;4975151;28;20043;-68
2024/01/28 08:24:38;;;;;;;35.70;11.15;;;;;;;-1.14;91.56;103127.19;4958622;28;20060;-68
2024/01/28 08:27:05;;;;;;;50.97;11.25;;;;;;;-1.06;91.31;103125.41;4975425;28;20057;-68
2024/01/28 08:29:32;;;;;;;37.08;10.70;;;;;;;-1.04;90.46;103118.31;4986163;28;20133;-68
2024/01/28 08:31:59;;;;;;;37.28;10.82;;;;;;;-0.98;90.98;103116.53;4994624;28;20047;-68
2024/01/28 08:34:26;;;;;;;47.22;11.07;;;;;;;-0.98;91.12;103116.53;4995107;28;20050;-68
2024/01/28 08:36:52;;;;;;;45.72;10.23;;;;;;;-0.85;90.95;103112.94;4994662;28;20097;-68
2024/01/28 08:39:19;;;;;;;32.35;11.02;;;;;;;-0.76;90.56;103113.81;4995040;28;20104;-72
2024/01/28 08:41:46;;;;;;;33.65;10.35;;;;;;;-0.68;90.45;103121.78;4995419;28;20191;-69
2024/01/28 08:44:14;;;;;;;37.55;10.43;;;;;;;-0.57;90.55;103124.41;4994471;28;20043;-68
2024/01/28 08:46:40;;;;;;;32.88;10.20;;;;;;;-0.46;89.38;103134.13;4994310;28;20042;-68
2024/01/28 08:49:07;;;;;;;35.63;9.70;;;;;;;-0.24;89.48;103131.41;4994318;28;20057;-67
2024/01/28 08:51:34;;;;;;;45.47;10.55;;;;;;;0.07;87.19;103137.44;4993864;28;20073;-70
2024/01/28 08:54:02;;;;;;;28.60;10.20;;;;;;;0.13;86.57;103143.66;4992951;28;20047;-69
2024/01/28 08:56:29;;;;;;;29.90;8.75;;;;;;;-0.01;86.83;103150.84;4993252;28;20050;-67
2024/01/28 08:58:56;;;;;;;33.60;9.73;;;;;;;0.19;86.72;103148.03;4994660;28;20109;-67
2024/01/28 09:01:23;;;;;;;31.42;9.18;;;;;;;0.20;85.58;103140.91;4993610;28;20122;-67
2024/01/28 09:03:50;;;;;;;40.03;10.18;;;;;;;0.32;85.46;103114.19;4993304;28;20054;-67
2024/01/28 09:06:18;;;;;;;38.40;9.65;;;;;;;0.28;85.34;103113.28;4994515;28;20081;-68
2024/01/28 09:08:44;;;;;;;34.47;10.02;;;;;;;0.32;85.22;103108.84;4984435;28;20057;-69
2024/01/28 09:11:11;;;;;;;40.65;9.50;;;;;;;0.35;85.01;103115.03;4993395;28;20514;-69
2024/01/28 09:13:38;;;;;;;31.25;9.60;;;;;;;0.51;85.38;103121.16;4994296;28;20493;-68
2024/01/28 09:16:05;;;;;;;31.02;8.82;;;;;;;0.83;83.65;103128.00;4993680;28;20105;-69
2024/01/28 09:18:31;;;;;;;34.88;9.10;;;;;;;1.20;82.52;103134.75;4993453;28;20141;-69
2024/01/28 09:20:59;;;;;;;36.13;8.95;;;;;;;1.16;81.75;103135.69;4994522;28;20499;-67
2024/01/28 09:23:25;;;;;;;27.05;8.13;;;;;;;1.05;82.74;103134.91;4994308;28;20055;-69
2024/01/28 09:25:52;;;;;;;28.88;8.48;;;;;;;1.12;81.59;103131.25;4994170;28;20042;-69
2024/01/28 09:28:18;;;;;;;28.58;8.65;;;;;;;1.14;82.47;103123.22;4991987;28;20050;-68
2024/01/28 09:30:45;;;;;;;25.63;8.85;;;;;;;0.96;82.82;103127.88;4974388;28;20067;-69
2024/01/28 09:33:12;;;;;;;36.95;9.10;;;;;;;1.14;81.97;103129.47;4973951;28;20051;-68
2024/01/28 09:35:43;;;;;;;30.73;8.93;;;;;;;1.07;81.68;103138.47;4973342;28;20054;-68
2024/01/28 09:38:10;;;;;;;31.65;9.43;;;;;;;1.10;81.63;103138.41;4973328;28;20055;-68
2024/01/28 09:40:36;;;;;;;31.92;9.18;;;;;;;1.19;81.50;103149.00;4974004;28;20533;-68
2024/01/28 09:43:27;;;;;;;23.80;8.73;;;;;;;1.14;81.20;103153.53;4974467;28;20117;-67
2024/01/28 09:45:55;;;;;;;37.15;9.30;;;;;;;1.32;81.33;103160.47;4976048;28;20496;-69
2024/01/28 09:48:23;;;;;;;35.80;9.68;;;;;;;1.41;80.70;103154.13;4973902;28;20042;-68
2024/01/28 09:50:50;;;;;;;34.42;8.95;;;;;;;1.53;80.31;103137.97;4973894;28;20500;-68
2024/01/28 09:53:17;;;;;;;40.58;8.45;;;;;;;1.72;78.97;103136.84;4974149;28;20053;-68
2024/01/28 09:55:43;;;;;;;32.15;9.00;;;;;;;1.80;78.23;103126.91;4970944;28;20464;-68
2024/01/28 09:58:11;;;;;;;23.38;7.57;;;;;;;1.99;78.12;103121.31;4974509;28;20105;-69
2024/01/28 10:00:37;;;;;;;27.60;8.27;;;;;;;2.17;76.88;103114.81;4973499;28;20051;-68
2024/01/28 10:03:04;;;;;;;29.80;7.30;;;;;;;2.42;75.49;103102.81;4964018;28;20054;-68
2024/01/28 10:05:31;;;;;;;27.73;8.07;;;;;;;3.28;72.90;103103.06;4974056;28;20050;-69
2024/01/28 10:08:01;;;;;;;24.50;7.40;;;;;;;4.55;67.77;103100.22;4974455;28;20070;-68
2024/01/28 10:10:34;;;;;;;31.95;7.10;;;;;;;5.38;63.97;103098.94;4974551;28;20110;-69
2024/01/28 10:13:04;;;;;;;26.73;6.32;;;;;;;6.25;61.20;103096.28;4974389;28;20105;-69
2024/01/28 10:15:31;;;;;;;26.63;7.82;;;;;;;6.89;58.52;103091.44;4973617;28;20046;-67
2024/01/28 10:17:58;;;;;;;25.60;7.03;;;;;;;7.32;56.90;103095.31;4973511;28;20081;-67
2024/01/28 10:20:28;;;;;;;25.17;6.60;;;;;;;6.66;59.20;103091.34;4972883;28;20054;-69
2024/01/28 10:22:55;;;;;;;26.80;7.25;;;;;;;6.42;59.13;103085.84;4973931;28;20522;-68
2024/01/28 10:25:22;;;;;;;27.13;8.02;;;;;;;6.63;58.92;103096.84;4973803;28;20055;-69
2024/01/28 10:27:49;;;;;;;19.88;5.90;;;;;;;6.74;57.53;103091.97;4973377;28;20051;-69
2024/01/28 10:30:22;;;;;;;21.42;6.35;;;;;;;6.33;59.64;103094.22;4973672;28;20053;-68
2024/01/28 10:32:48;;;;;;;;;;;;;;;6.52;58.97;103096.31;4974552;28;20054;-69
2024/01/28 10:35:16;;;;;;;29.55;7.88;;;;;;;6.58;58.95;103085.34;4974909;28;20294;-68
2024/01/28 10:37:52;;;;;;;24.35;6.05;;;;;;;6.59;58.60;103073.63;4973114;28;20077;-68
2024/01/28 10:40:19;;;;;;;26.85;6.15;;;;;;;6.67;58.16;103068.84;4991071;28;20053;-69
2024/01/28 10:42:49;;;;;;;26.60;6.32;;;;;;;6.87;58.26;103069.03;4994555;28;20137;-68
2024/01/28 10:45:19;;;;;;;22.10;6.00;;;;;;;6.56;58.07;103073.72;4976655;28;20046;-70
2024/01/28 10:47:54;;;;;;;29.30;7.00;;;;;;;6.61;57.78;103079.84;4992519;28;20134;-69
2024/01/28 10:50:22;;;;;;;25.23;6.72;;;;;;;7.42;56.33;103069.78;4993293;28;20046;-68
2024/01/28 10:52:48;;;;;;;23.88;6.53;;;;;;;7.19;56.41;103067.91;4993223;28;20046;-68
2024/01/28 10:55:16;;;;;;;23.10;5.60;;;;;;;7.06;56.78;103054.88;4992893;28;20108;-68
2024/01/28 10:57:44;;;;;;;20.45;5.90;;;;;;;7.10;56.73;103048.47;4992633;28;20069;-68
2024/01/28 11:00:13;;;;;;;22.30;6.30;;;;;;;7.05;57.04;103053.13;4990552;28;20052;-68
2024/01/28 11:02:42;;;;;;;23.92;6.45;;;;;;;6.75;58.51;103055.97;4991108;28;20140;-68
2024/01/28 11:05:10;;;;;;;23.73;6.43;;;;;;;6.79;58.38;103063.03;4992096;28;20125;-67
2024/01/28 11:07:39;;;;;;;27.48;6.45;;;;;;;6.68;58.11;103055.31;4991499;28;20130;-68
2024/01/28 11:10:11;;;;;;;18.55;6.05;;;;;;;6.56;58.33;103052.16;4992205;28;20042;-67
2024/01/28 11:12:39;;;;;;;36.22;6.15;;;;;;;6.21;59.35;103042.53;4992452;28;20050;-67
2024/01/28 11:15:12;;;;;;;26.63;6.00;;;;;;;6.46;59.78;103039.94;4992808;28;20061;-68
2024/01/28 11:17:39;;;;;;;23.77;5.75;;;;;;;6.10;59.00;103042.91;4991645;28;20048;-68
2024/01/28 11:20:07;;;;;;;30.60;6.53;;;;;;;6.11;60.68;103039.28;4992074;28;20065;-68
2024/01/28 11:22:50;;;;;;;19.77;5.95;;;;;;;6.04;60.51;103035.00;4992245;28;20046;-68